Time;durP1;ratioP1;P1;durP2;ratioP2;P2;SDS_P1;SDS_P2;PMS_P1;PMS_P2;Temp;Humidity;BMP_temperature;BMP_pressure;BME280_temperature;BME280_humidity;BME280_pressure;Samples;Min_cycle;Max_cycle;Signal;HPM_P1;HPM_P2
2023/06/09 00:02:06;;;;;;;1999.90;999.90;;;22.10;99.90;;;;;;5037512;28;20079;-88
2023/06/09 00:04:35;;;;;;;1999.90;999.90;;;22.10;99.90;;;;;;5036991;28;20026;-87
2023/06/09 00:07:02;;;;;;;1999.90;999.90;;;22.10;99.90;;;;;;5036854;28;20105;-88
2023/06/09 00:09:29;;;;;;;1999.90;999.90;;;22.10;99.90;;;;;;5026203;28;20030;-88
2023/06/09 00:11:55;;;;;;;1999.90;999.90;;;22.00;99.90;;;;;;5019406;28;20551;-87
2023/06/09 00:14:20;;;;;;;1999.90;999.90;;;22.00;99.90;;;;;;5036673;28;20029;-88
2023/06/09 00:16:46;;;;;;;1999.90;999.90;;;22.00;99.90;;;;;;5037526;28;20385;-89
2023/06/09 00:19:19;;;;;;;1999.90;999.90;;;21.90;99.90;;;;;;5037042;28;20504;-88
2023/06/09 00:21:49;;;;;;;1999.90;999.90;;;21.80;99.90;;;;;;5037348;28;20481;-89
2023/06/09 00:24:20;;;;;;;1999.90;999.90;;;21.70;99.90;;;;;;5037562;28;20052;-88
2023/06/09 00:26:47;;;;;;;1999.90;999.90;;;21.70;99.90;;;;;;5035837;28;20013;-88
2023/06/09 00:29:12;;;;;;;1999.90;999.90;;;21.60;99.90;;;;;;5037524;28;20033;-88
2023/06/09 00:31:40;;;;;;;1999.90;999.90;;;21.50;99.90;;;;;;5019887;28;20025;-88
2023/06/09 00:34:06;;;;;;;1999.90;999.90;;;21.50;99.90;;;;;;5036140;28;20025;-88
2023/06/09 00:36:31;;;;;;;1999.90;999.90;;;21.50;99.90;;;;;;5036781;28;20065;-88
2023/06/09 00:38:57;;;;;;;1999.90;999.90;;;21.50;99.90;;;;;;5036033;28;20025;-86
2023/06/09 00:41:22;;;;;;;1999.90;999.90;;;21.40;99.90;;;;;;5036507;28;20459;-88
2023/06/09 00:43:53;;;;;;;1999.90;999.90;;;21.30;99.90;;;;;;5034084;28;20017;-87
2023/06/09 00:46:19;;;;;;;1999.90;999.90;;;21.10;99.90;;;;;;5034645;28;20029;-89
2023/06/09 00:48:45;;;;;;;1999.90;999.90;;;20.90;99.90;;;;;;5035361;28;20037;-89
2023/06/09 00:51:11;;;;;;;1999.90;999.90;;;20.80;99.90;;;;;;5036890;28;20064;-88
2023/06/09 00:53:37;;;;;;;1999.90;999.90;;;20.70;99.90;;;;;;5037074;28;20030;-89
2023/06/09 00:56:03;;;;;;;1999.90;999.90;;;20.60;99.90;;;;;;5037292;28;20041;-89
2023/06/09 00:58:30;;;;;;;1999.90;999.90;;;20.50;99.90;;;;;;5037236;28;20104;-88
2023/06/09 01:00:57;;;;;;;1999.90;999.90;;;20.40;99.90;;;;;;5034165;28;20029;-90
2023/06/09 01:03:24;;;;;;;1999.90;999.90;;;20.30;99.90;;;;;;5028262;28;20026;-89
2023/06/09 01:05:58;;;;;;;1999.90;999.90;;;20.30;99.90;;;;;;5017437;28;20076;-89
2023/06/09 01:08:52;;;;;;;1999.90;999.90;;;20.30;99.90;;;;;;5018353;28;20485;-89
2023/06/09 01:11:59;;;;;;;1999.90;999.90;;;20.30;99.90;;;;;;5038869;28;20071;-90
2023/06/09 01:14:31;;;;;;;1999.90;999.90;;;20.30;99.90;;;;;;5016219;28;20030;-88
2023/06/09 01:17:00;;;;;;;1999.90;999.90;;;20.20;99.90;;;;;;5016480;28;20481;-87
2023/06/09 01:19:36;;;;;;;1999.90;999.90;;;20.20;99.90;;;;;;5015456;28;20088;-86
2023/06/09 01:22:25;;;;;;;1999.90;999.90;;;20.20;99.90;;;;;;5015615;28;20021;-88
2023/06/09 01:25:14;;;;;;;1999.90;999.90;;;20.10;99.90;;;;;;5016871;28;20029;-89
2023/06/09 01:27:44;;;;;;;1999.90;999.90;;;20.20;99.90;;;;;;5017092;28;20029;-89
2023/06/09 01:30:12;;;;;;;1999.90;999.90;;;20.30;99.90;;;;;;5015346;28;20029;-91
2023/06/09 01:32:40;;;;;;;1999.90;999.90;;;20.40;99.90;;;;;;5019024;28;20425;-91
2023/06/09 01:35:07;;;;;;;1999.90;999.90;;;20.60;99.90;;;;;;5015812;28;20041;-90
2023/06/09 01:37:33;;;;;;;1999.90;999.90;;;20.60;99.90;;;;;;5016059;28;20048;-88
2023/06/09 01:39:59;;;;;;;1999.90;999.90;;;20.70;99.90;;;;;;5018120;28;20389;-90
2023/06/09 01:42:25;;;;;;;1999.90;999.90;;;20.70;99.90;;;;;;5015634;28;20437;-89
2023/06/09 01:44:51;;;;;;;1999.90;999.90;;;20.60;99.90;;;;;;5014700;28;20054;-88
2023/06/09 01:47:19;;;;;;;1999.90;999.90;;;20.60;99.90;;;;;;5019613;28;20374;-88
2023/06/09 01:49:59;;;;;;;1999.90;999.90;;;20.30;99.90;;;;;;5035361;28;20017;-89
2023/06/09 01:52:36;;;;;;;1999.90;999.90;;;20.30;99.90;;;;;;5036742;28;20057;-88
2023/06/09 01:55:17;;;;;;;1999.90;999.90;;;20.30;99.90;;;;;;5035121;28;20017;-88
2023/06/09 01:57:52;;;;;;;1999.90;999.90;;;20.30;99.90;;;;;;5035052;28;20021;-89
2023/06/09 02:00:21;;;;;;;1999.90;999.90;;;20.30;99.90;;;;;;5037098;28;20106;-88
2023/06/09 02:02:51;;;;;;;1999.90;999.90;;;20.20;99.90;;;;;;5031519;28;20477;-88
2023/06/09 02:05:18;;;;;;;1999.90;999.90;;;20.20;99.90;;;;;;5014883;28;20022;-89
2023/06/09 02:07:44;;;;;;;1999.90;999.90;;;20.10;99.90;;;;;;5015299;28;20040;-88
2023/06/09 02:10:12;;;;;;;1999.90;999.90;;;20.10;99.90;;;;;;5031198;28;20025;-88
2023/06/09 02:12:37;;;;;;;1999.90;999.90;;;20.10;99.90;;;;;;5009343;28;20069;-88
2023/06/09 02:15:05;;;;;;;1999.90;999.90;;;20.10;99.90;;;;;;5017079;28;20030;-88
2023/06/09 02:17:33;;;;;;;1999.90;999.90;;;20.10;99.90;;;;;;5014969;28;20539;-88
2023/06/09 02:19:59;;;;;;;1999.90;999.90;;;20.10;99.90;;;;;;5016865;28;20560;-86
2023/06/09 02:22:25;;;;;;;1999.90;999.90;;;20.10;99.90;;;;;;4996698;28;20026;-88
2023/06/09 02:24:51;;;;;;;1999.90;999.90;;;20.00;99.90;;;;;;5032352;28;20362;-88
2023/06/09 02:27:17;;;;;;;1999.90;999.90;;;20.10;99.90;;;;;;5035788;28;20041;-89
2023/06/09 02:29:43;;;;;;;1999.90;999.90;;;20.10;99.90;;;;;;5034253;28;20025;-89
2023/06/09 02:32:08;;;;;;;1999.90;999.90;;;20.00;99.90;;;;;;5016294;28;20022;-89
2023/06/09 02:34:34;;;;;;;1999.90;999.90;;;20.10;99.90;;;;;;5036065;28;20030;-89
2023/06/09 02:37:02;;;;;;;1999.90;999.90;;;20.10;99.90;;;;;;5034045;28;20052;-88
2023/06/09 02:39:28;;;;;;;1999.90;999.90;;;20.10;99.90;;;;;;5034366;28;20028;-89
2023/06/09 02:41:55;;;;;;;1999.90;999.90;;;20.00;99.90;;;;;;5036627;28;20100;-90
2023/06/09 02:44:21;;;;;;;1999.90;999.90;;;20.10;99.90;;;;;;5035104;28;20029;-90
2023/06/09 02:46:46;;;;;;;1999.90;999.90;;;20.10;99.90;;;;;;5037742;28;20029;-90
2023/06/09 02:49:12;;;;;;;1999.90;999.90;;;20.10;99.90;;;;;;5034310;28;20456;-91
2023/06/09 02:51:38;;;;;;;1999.90;999.90;;;20.10;99.90;;;;;;5035482;28;20032;-91
2023/06/09 02:54:04;;;;;;;1999.90;999.90;;;20.10;99.90;;;;;;5017485;28;20029;-88
2023/06/09 02:56:30;;;;;;;1999.90;999.90;;;20.10;99.90;;;;;;5016039;28;20068;-92
2023/06/09 02:58:57;;;;;;;1999.90;999.90;;;20.00;99.90;;;;;;5034627;28;20049;-92
2023/06/09 03:01:23;;;;;;;1999.90;999.90;;;20.00;99.90;;;;;;5033914;28;20025;-89
2023/06/09 03:03:48;;;;;;;1999.90;999.90;;;20.00;99.90;;;;;;5033848;28;20029;-91
2023/06/09 03:06:15;;;;;;;1999.90;999.90;;;20.00;99.90;;;;;;5033648;28;20148;-92
2023/06/09 03:08:41;;;;;;;1999.90;999.90;;;20.00;99.90;;;;;;5033705;28;20026;-91
2023/06/09 03:11:07;;;;;;;1999.90;999.90;;;19.90;99.90;;;;;;5035665;28;20069;-94
2023/06/09 03:13:32;;;;;;;1999.90;999.90;;;19.70;99.90;;;;;;5038712;28;20527;-93
2023/06/09 03:15:58;;;;;;;1999.90;999.90;;;19.60;99.90;;;;;;5037401;28;20469;-94
2023/06/09 03:18:27;;;;;;;1999.90;999.90;;;19.50;99.90;;;;;;5034913;28;20025;-95
2023/06/09 03:20:53;;;;;;;1999.90;999.90;;;19.50;99.90;;;;;;5039209;28;20029;-95
2023/06/09 03:23:20;;;;;;;1999.90;999.90;;;19.50;99.90;;;;;;5039697;28;20049;-95
2023/06/09 03:25:46;;;;;;;1999.90;999.90;;;19.50;99.90;;;;;;5050571;28;20032;-96
2023/06/09 03:28:12;;;;;;;1999.90;999.90;;;19.50;99.90;;;;;;5049511;28;20033;-95
2023/06/09 03:30:38;;;;;;;1999.90;999.90;;;19.20;99.90;;;;;;5023048;28;20026;-94
2023/06/09 03:33:03;;;;;;;1999.90;999.90;;;19.00;99.90;;;;;;5039337;28;20052;-95
2023/06/09 03:35:29;;;;;;;1999.90;999.90;;;19.00;99.90;;;;;;5046797;28;20085;-94
2023/06/09 03:37:55;;;;;;;1999.90;999.90;;;19.00;99.90;;;;;;5038671;28;20033;-93
2023/06/09 03:40:20;;;;;;;1999.90;999.90;;;19.00;99.90;;;;;;5042047;28;20083;-95
2023/06/09 03:42:46;;;;;;;1999.90;999.90;;;19.00;99.90;;;;;;5046420;28;20092;-95
2023/06/09 03:45:12;;;;;;;1999.90;999.90;;;18.80;99.90;;;;;;5043374;28;20033;-92
2023/06/09 03:47:37;;;;;;;1999.90;999.90;;;18.80;99.90;;;;;;5042539;28;20076;-94
2023/06/09 03:50:03;;;;;;;1999.90;999.90;;;18.80;99.90;;;;;;5038213;28;20112;-96
2023/06/09 03:52:30;;;;;;;1999.90;999.90;;;18.80;99.90;;;;;;5041821;28;20014;-96
2023/06/09 03:54:55;;;;;;;1999.90;999.90;;;18.70;99.90;;;;;;5041078;28;20048;-95
2023/06/09 03:57:21;;;;;;;1999.90;999.90;;;18.70;99.90;;;;;;5046187;28;20026;-95
2023/06/09 03:59:46;;;;;;;1999.90;999.90;;;18.70;99.90;;;;;;5038194;28;20029;-95
2023/06/09 04:02:12;;;;;;;1999.90;999.90;;;18.70;99.90;;;;;;5036078;28;20066;-96
2023/06/09 04:04:38;;;;;;;1999.90;999.90;;;18.70;99.90;;;;;;5022798;28;20011;-95
2023/06/09 04:07:04;;;;;;;1999.90;999.90;;;18.70;99.90;;;;;;5033975;28;20026;-96
2023/06/09 04:09:32;;;;;;;1999.90;999.90;;;18.70;99.90;;;;;;5034816;28;20029;-95
2023/06/09 04:11:58;;;;;;;1999.90;999.90;;;18.60;99.90;;;;;;5023120;28;20483;-91
2023/06/09 04:14:24;;;;;;;1999.90;999.90;;;18.60;99.90;;;;;;5018495;28;20058;-94
2023/06/09 04:16:50;;;;;;;1999.90;999.90;;;18.70;99.90;;;;;;5017954;28;20493;-96
2023/06/09 04:19:15;;;;;;;1999.90;999.90;;;18.90;99.90;;;;;;5025985;28;20026;-90
2023/06/09 04:21:43;;;;;;;1999.90;999.90;;;18.90;99.90;;;;;;5029860;28;20060;-95
2023/06/09 04:24:09;;;;;;;1999.90;999.90;;;18.90;99.90;;;;;;5025487;28;20408;-93
2023/06/09 04:26:37;;;;;;;1999.90;999.90;;;18.80;99.90;;;;;;5018298;28;20092;-94
2023/06/09 04:29:03;;;;;;;1999.90;999.90;;;18.80;99.90;;;;;;5034845;28;20045;-92
2023/06/09 04:31:33;;;;;;;1999.90;999.90;;;18.90;99.90;;;;;;5034269;28;20497;-94
2023/06/09 04:34:05;;;;;;;1999.90;999.90;;;18.80;99.90;;;;;;5033220;28;20018;-94
2023/06/09 04:36:32;;;;;;;1999.90;999.90;;;18.90;99.90;;;;;;5034441;28;20042;-94
2023/06/09 04:38:58;;;;;;;1999.90;999.90;;;18.90;99.90;;;;;;5036002;28;20028;-96
2023/06/09 04:41:26;;;;;;;1999.90;999.90;;;18.90;99.90;;;;;;5032766;28;20025;-94
2023/06/09 04:43:53;;;;;;;1999.90;999.90;;;18.90;99.90;;;;;;5026494;28;20447;-93
2023/06/09 04:46:24;;;;;;;1999.90;999.90;;;18.90;99.90;;;;;;5019318;28;20040;-91
2023/06/09 04:48:51;;;;;;;1999.90;999.90;;;18.90;99.90;;;;;;5036756;28;20052;-93
2023/06/09 04:51:21;;;;;;;1999.90;999.90;;;18.90;99.90;;;;;;5037595;28;20381;-94
2023/06/09 04:53:47;;;;;;;1999.90;999.90;;;19.00;99.90;;;;;;5042749;28;20025;-94
2023/06/09 04:56:16;;;;;;;1999.90;999.90;;;19.00;99.90;;;;;;5038236;28;20021;-93
2023/06/09 04:58:42;;;;;;;1999.90;999.90;;;18.90;99.90;;;;;;5034828;28;20531;-94
2023/06/09 05:01:07;;;;;;;1999.90;999.90;;;19.00;99.90;;;;;;5040869;28;20026;-93
2023/06/09 05:03:33;;;;;;;1999.90;999.90;;;19.00;99.90;;;;;;5038110;28;20108;-95
2023/06/09 05:05:59;;;;;;;1999.90;999.90;;;19.00;99.90;;;;;;5044031;28;20033;-94
2023/06/09 05:08:25;;;;;;;1999.90;999.90;;;19.00;99.90;;;;;;5037728;28;20014;-94
2023/06/09 05:10:52;;;;;;;1999.90;999.90;;;19.00;99.90;;;;;;5036314;28;20366;-94
2023/06/09 05:13:18;;;;;;;1999.90;999.90;;;19.10;99.90;;;;;;5041357;28;20040;-93
2023/06/09 05:15:45;;;;;;;1999.90;999.90;;;19.10;99.90;;;;;;5036124;28;20120;-94
2023/06/09 05:18:10;;;;;;;1999.90;999.90;;;19.30;99.90;;;;;;5036278;28;20500;-94
2023/06/09 05:20:36;;;;;;;1999.90;999.90;;;19.20;99.90;;;;;;5037316;28;20025;-94
2023/06/09 05:23:02;;;;;;;1999.90;999.90;;;19.20;99.90;;;;;;5038556;28;20033;-94
2023/06/09 05:25:28;;;;;;;1999.90;999.90;;;19.20;99.90;;;;;;5038259;28;20361;-93
2023/06/09 05:27:53;;;;;;;1999.90;999.90;;;19.30;99.90;;;;;;5039671;28;20021;-93
2023/06/09 05:30:19;;;;;;;1999.90;999.90;;;19.50;99.90;;;;;;5018971;28;20040;-95
2023/06/09 05:32:45;;;;;;;1999.90;999.90;;;19.50;99.90;;;;;;5036110;28;20071;-96
2023/06/09 05:35:10;;;;;;;1999.90;999.90;;;19.40;99.90;;;;;;5035529;28;20046;-96
2023/06/09 05:37:48;;;;;;;1999.90;999.90;;;19.40;99.90;;;;;;5037497;28;20026;-96
2023/06/09 05:40:14;;;;;;;1999.90;999.90;;;19.40;99.90;;;;;;5035008;28;20028;-96
2023/06/09 05:42:39;;;;;;;1999.90;999.90;;;19.40;99.90;;;;;;5034751;28;20034;-94
2023/06/09 05:45:05;;;;;;;1999.90;999.90;;;19.40;99.90;;;;;;5035334;28;20036;-91
2023/06/09 05:47:31;;;;;;;1999.90;999.90;;;19.40;99.90;;;;;;5034149;28;20044;-93
2023/06/09 05:49:57;;;;;;;1999.90;999.90;;;19.40;99.90;;;;;;5016998;28;20034;-91
2023/06/09 05:52:23;;;;;;;1999.90;999.90;;;19.40;99.90;;;;;;5034961;28;20480;-92
2023/06/09 05:54:49;;;;;;;1999.90;999.90;;;19.40;99.90;;;;;;5035186;28;20022;-92
2023/06/09 05:57:15;;;;;;;1999.90;999.90;;;19.30;99.90;;;;;;5035755;28;20032;-92
2023/06/09 05:59:42;;;;;;;1999.90;999.90;;;19.30;99.90;;;;;;5033992;28;20073;-92
2023/06/09 06:02:08;;;;;;;1999.90;999.90;;;19.30;99.90;;;;;;5024205;28;20501;-92
2023/06/09 06:04:33;;;;;;;1999.90;999.90;;;19.40;99.90;;;;;;5032047;28;20104;-92
2023/06/09 06:06:59;;;;;;;1999.90;999.90;;;19.40;99.90;;;;;;5033396;28;20035;-96
2023/06/09 06:09:24;;;;;;;1999.90;999.90;;;19.50;99.90;;;;;;5039423;28;20037;-95
2023/06/09 06:11:50;;;;;;;1999.90;999.90;;;19.60;99.90;;;;;;5052104;28;20172;-96
2023/06/09 06:14:16;;;;;;;1999.90;999.90;;;19.70;99.90;;;;;;5035832;28;20033;-96
2023/06/09 06:16:41;;;;;;;1999.90;999.90;;;19.70;99.90;;;;;;5041368;28;20021;-91
2023/06/09 06:19:08;;;;;;;1999.90;999.90;;;19.70;99.90;;;;;;5052488;28;20025;-89
2023/06/09 06:21:35;;;;;;;1999.90;999.90;;;19.60;99.90;;;;;;5052598;28;20038;-90
2023/06/09 06:24:01;;;;;;;1999.90;999.90;;;19.50;99.90;;;;;;5053642;28;20017;-95
2023/06/09 06:26:26;;;;;;;1999.90;999.90;;;19.40;99.90;;;;;;5048712;28;20072;-94
2023/06/09 06:28:52;;;;;;;1999.90;999.90;;;19.40;99.90;;;;;;5041613;28;20036;-87
2023/06/09 06:31:17;;;;;;;1999.90;999.90;;;19.40;99.90;;;;;;5050139;28;20101;-96
2023/06/09 06:33:44;;;;;;;1999.90;999.90;;;19.40;99.90;;;;;;5043726;28;20151;-90
2023/06/09 06:36:10;;;;;;;1999.90;999.90;;;19.40;99.90;;;;;;5026982;28;20049;-96
2023/06/09 06:38:35;;;;;;;1999.90;999.90;;;19.50;99.90;;;;;;5038040;28;20040;-82
2023/06/09 06:41:03;;;;;;;1999.90;999.90;;;19.50;99.90;;;;;;5043898;28;20412;-83
2023/06/09 06:43:29;;;;;;;1999.90;999.90;;;19.70;99.90;;;;;;5031491;28;20546;-83
2023/06/09 06:45:55;;;;;;;1999.90;999.90;;;19.90;99.90;;;;;;5028961;28;20108;-83
2023/06/09 06:48:21;;;;;;;1999.90;999.90;;;20.00;99.90;;;;;;5030524;28;20044;-82
2023/06/09 06:50:46;;;;;;;1999.90;999.90;;;20.10;99.90;;;;;;5031582;28;20456;-83
2023/06/09 06:53:12;;;;;;;1999.90;999.90;;;20.30;99.90;;;;;;5032091;28;20101;-82
2023/06/09 06:55:38;;;;;;;1999.90;999.90;;;20.40;99.90;;;;;;5031483;28;20071;-83
2023/06/09 06:58:03;;;;;;;1999.90;999.90;;;20.60;99.90;;;;;;5029132;28;20060;-83
2023/06/09 07:00:29;;;;;;;1999.90;999.90;;;20.70;99.90;;;;;;5030486;28;20135;-82
2023/06/09 07:02:56;;;;;;;1999.90;999.90;;;20.80;99.90;;;;;;5028907;28;20029;-83
2023/06/09 07:05:22;;;;;;;1999.90;999.90;;;20.90;99.90;;;;;;5031971;28;20033;-83
2023/06/09 07:07:48;;;;;;;1999.90;999.90;;;20.90;99.90;;;;;;5030920;28;20488;-82
2023/06/09 07:10:13;;;;;;;1999.90;999.90;;;21.20;99.90;;;;;;5030961;28;20079;-83
2023/06/09 07:12:41;;;;;;;1999.90;999.90;;;21.30;99.90;;;;;;5024299;28;20528;-82
2023/06/09 07:15:07;;;;;;;1999.90;999.90;;;21.70;99.90;;;;;;5032669;28;20017;-82
2023/06/09 07:17:33;;;;;;;1999.90;999.90;;;21.90;99.90;;;;;;5025391;28;20459;-81
2023/06/09 07:19:59;;;;;;;1999.90;999.90;;;22.10;99.90;;;;;;5029341;28;20025;-83
2023/06/09 07:22:25;;;;;;;1999.90;999.90;;;22.70;99.90;;;;;;5029160;28;20028;-83
2023/06/09 07:24:51;;;;;;;1999.90;999.90;;;23.00;99.90;;;;;;5003978;28;20021;-83
2023/06/09 07:27:17;;;;;;;1999.90;999.90;;;23.10;99.90;;;;;;5030603;28;20057;-83
2023/06/09 07:29:43;;;;;;;1999.90;999.90;;;23.30;99.90;;;;;;5029525;28;20025;-80
2023/06/09 07:32:09;;;;;;;1999.90;999.90;;;23.30;99.90;;;;;;5012514;28;20030;-81
2023/06/09 07:34:35;;;;;;;1999.90;999.90;;;23.30;99.90;;;;;;5030450;28;20397;-82
2023/06/09 07:37:03;;;;;;;1999.90;999.90;;;23.80;99.90;;;;;;5030293;28;20041;-82
2023/06/09 07:39:29;;;;;;;1999.90;999.90;;;24.00;99.90;;;;;;5026727;28;20021;-82
2023/06/09 07:41:55;;;;;;;1999.90;999.90;;;25.40;99.90;;;;;;5030179;28;20034;-83
2023/06/09 07:44:21;;;;;;;1999.90;999.90;;;26.30;99.90;;;;;;5029656;28;20026;-82
2023/06/09 07:46:46;;;;;;;1999.90;999.90;;;26.60;99.90;;;;;;5030197;28;20021;-82
2023/06/09 07:49:14;;;;;;;1999.90;999.90;;;25.60;99.90;;;;;;5030428;28;20113;-83
2023/06/09 07:51:41;;;;;;;1999.90;999.90;;;24.90;99.90;;;;;;5030005;28;20511;-82
2023/06/09 07:54:07;;;;;;;1999.90;999.90;;;24.20;99.90;;;;;;5012826;28;20080;-81
2023/06/09 07:56:36;;;;;;;1999.90;999.90;;;23.70;99.90;;;;;;5030176;28;20026;-80
2023/06/09 07:59:02;;;;;;;1999.90;999.90;;;23.40;99.90;;;;;;5033297;28;20079;-82
2023/06/09 08:01:29;;;;;;;1999.90;999.90;;;23.20;99.90;;;;;;5026241;28;20881;-81
2023/06/09 08:03:55;;;;;;;1999.90;999.90;;;23.10;99.90;;;;;;5019720;28;20033;-81
2023/06/09 08:06:21;;;;;;;1999.90;999.90;;;23.10;99.90;;;;;;5022800;28;20497;-82
2023/06/09 08:08:46;;;;;;;1999.90;999.90;;;23.00;99.90;;;;;;5030223;28;20029;-80
2023/06/09 08:11:12;;;;;;;1999.90;999.90;;;23.00;99.90;;;;;;5029027;28;20033;-81
2023/06/09 08:13:37;;;;;;;1999.90;999.90;;;23.20;99.90;;;;;;5028876;28;20021;-80
2023/06/09 08:16:03;;;;;;;1999.90;999.90;;;23.10;99.90;;;;;;5029153;28;20053;-82
2023/06/09 08:18:29;;;;;;;1999.90;999.90;;;23.00;99.90;;;;;;5030580;28;20030;-82
2023/06/09 08:20:55;;;;;;;1999.90;999.90;;;22.80;99.90;;;;;;5033470;28;20061;-83
2023/06/09 08:23:20;;;;;;;1999.90;999.90;;;22.80;99.90;;;;;;5033982;28;20492;-82
2023/06/09 08:25:47;;;;;;;1999.90;999.90;;;22.70;99.90;;;;;;5033200;28;20032;-82
2023/06/09 08:28:13;;;;;;;1999.90;999.90;;;22.60;99.90;;;;;;5031850;28;20036;-82
2023/06/09 08:30:38;;;;;;;1999.90;999.90;;;22.50;99.90;;;;;;5028625;28;20116;-82
2023/06/09 08:33:04;;;;;;;1999.90;999.90;;;22.40;99.90;;;;;;5032799;28;20029;-82
2023/06/09 08:35:33;;;;;;;1999.90;999.90;;;22.30;99.90;;;;;;5032120;28;20052;-82
2023/06/09 08:37:59;;;;;;;1999.90;999.90;;;22.30;99.90;;;;;;5025557;28;20033;-82
2023/06/09 08:40:25;;;;;;;1999.90;999.90;;;22.20;99.90;;;;;;5030269;28;20535;-83
2023/06/09 08:42:57;;;;;;;1999.90;999.90;;;22.10;99.90;;;;;;5031031;28;20049;-82
2023/06/09 08:45:24;;;;;;;;;;;22.10;99.90;;;;;;5027557;28;20602;-82
2023/06/09 08:47:53;;;;;;;1999.90;999.90;;;22.10;99.90;;;;;;5033318;28;19912;-82
2023/06/09 08:50:21;;;;;;;1999.90;999.90;;;22.10;99.90;;;;;;5028346;28;20029;-81
2023/06/09 08:52:48;;;;;;;1999.90;999.90;;;22.00;99.90;;;;;;5033172;28;20104;-80
2023/06/09 08:55:14;;;;;;;1999.90;999.90;;;22.00;99.90;;;;;;5031791;28;20083;-79
2023/06/09 08:57:42;;;;;;;1999.90;999.90;;;21.90;99.90;;;;;;5025579;28;20037;-81
2023/06/09 09:00:11;;;;;;;1999.90;999.90;;;21.80;99.90;;;;;;5010228;28;20030;-81
2023/06/09 09:02:37;;;;;;;1999.90;999.90;;;21.80;99.90;;;;;;5030615;28;20026;-78
2023/06/09 09:05:04;;;;;;;1999.90;999.90;;;21.10;99.90;;;;;;5026729;28;20507;-81
2023/06/09 09:07:30;;;;;;;1999.90;999.90;;;20.40;99.90;;;;;;5029233;28;20049;-83
2023/06/09 09:09:58;;;;;;;1999.90;999.90;;;20.00;99.90;;;;;;5032505;28;20083;-87
2023/06/09 09:12:24;;;;;;;1999.90;999.90;;;19.70;99.90;;;;;;5028423;28;20029;-85
2023/06/09 09:14:49;;;;;;;1999.90;999.90;;;19.40;99.90;;;;;;5031413;28;20108;-86
2023/06/09 09:17:16;;;;;;;1999.90;999.90;;;19.30;99.90;;;;;;5028562;28;20052;-87
2023/06/09 09:19:45;;;;;;;1999.90;999.90;;;19.20;99.90;;;;;;5008655;28;20022;-87
2023/06/09 09:22:11;;;;;;;1999.90;999.90;;;19.20;99.90;;;;;;5032610;28;20029;-86
2023/06/09 09:24:41;;;;;;;1999.90;999.90;;;19.10;99.90;;;;;;5032490;28;20034;-86
2023/06/09 09:27:23;;;;;;;1999.90;999.90;;;18.90;99.90;;;;;;5028768;28;20034;-87
2023/06/09 09:29:49;;;;;;;1999.90;999.90;;;18.80;99.90;;;;;;5028414;28;20492;-85
2023/06/09 09:32:16;;;;;;;1999.90;999.90;;;18.70;99.90;;;;;;5022497;28;20051;-85
2023/06/09 09:34:46;;;;;;;1999.90;999.90;;;18.50;99.90;;;;;;5013277;28;20030;-83
2023/06/09 09:37:15;;;;;;;1999.90;999.90;;;18.50;99.90;;;;;;5030310;28;20029;-84
2023/06/09 09:39:53;;;;;;;1999.90;999.90;;;18.40;99.90;;;;;;5022670;28;20512;-83
2023/06/09 09:42:20;;;;;;;1999.90;999.90;;;18.40;99.90;;;;;;5018682;28;20500;-84
2023/06/09 09:44:50;;;;;;;1999.90;999.90;;;18.40;99.90;;;;;;5014492;28;20034;-83
2023/06/09 09:47:17;;;;;;;1999.90;999.90;;;18.50;99.90;;;;;;5027205;28;20044;-83
2023/06/09 09:49:58;;;;;;;1999.90;999.90;;;18.50;99.90;;;;;;5032916;28;20040;-85
2023/06/09 09:52:34;;;;;;;1999.90;999.90;;;18.40;99.90;;;;;;5014192;28;20056;-84
2023/06/09 09:55:03;;;;;;;1999.90;999.90;;;18.40;99.90;;;;;;5032323;28;20030;-84
2023/06/09 09:57:31;;;;;;;1999.90;999.90;;;18.30;99.90;;;;;;5010766;28;20029;-86
2023/06/09 10:00:00;;;;;;;1999.90;999.90;;;18.30;99.90;;;;;;5014785;28;20120;-83
2023/06/09 10:02:30;;;;;;;1999.90;999.90;;;18.20;99.90;;;;;;5032573;28;20026;-84
2023/06/09 10:05:00;;;;;;;1999.90;999.90;;;18.20;99.90;;;;;;5011115;28;20069;-85
2023/06/09 10:07:29;;;;;;;1999.90;999.90;;;18.40;99.90;;;;;;5015693;28;20036;-85
2023/06/09 10:09:56;;;;;;;1999.90;999.90;;;18.40;99.90;;;;;;5027026;28;20396;-85
2023/06/09 10:12:22;;;;;;;1999.90;999.90;;;18.40;99.90;;;;;;5032018;28;20068;-84
2023/06/09 10:14:49;;;;;;;1999.90;999.90;;;18.40;99.90;;;;;;5032593;28;20432;-85
2023/06/09 10:17:18;;;;;;;1999.90;999.90;;;18.40;99.90;;;;;;5033044;28;20392;-84
2023/06/09 10:19:45;;;;;;;1999.90;999.90;;;18.30;99.90;;;;;;5034055;28;20021;-83
2023/06/09 10:22:12;;;;;;;1999.90;999.90;;;18.30;99.90;;;;;;5041837;28;20032;-86
2023/06/09 10:24:39;;;;;;;1999.90;999.90;;;18.40;99.90;;;;;;5031948;28;20140;-85
2023/06/09 10:27:06;;;;;;;1999.90;999.90;;;18.40;99.90;;;;;;5031511;28;20029;-86
2023/06/09 10:29:33;;;;;;;1999.90;999.90;;;18.40;99.90;;;;;;5014071;28;20112;-86
2023/06/09 10:31:59;;;;;;;1999.90;999.90;;;18.40;99.90;;;;;;5031848;28;20458;-88
2023/06/09 10:34:27;;;;;;;1999.90;999.90;;;18.50;99.90;;;;;;5029551;28;20113;-87
2023/06/09 10:36:53;;;;;;;1999.90;999.90;;;18.40;99.90;;;;;;5024437;28;20041;-86
2023/06/09 10:39:25;;;;;;;1999.90;999.90;;;18.40;99.90;;;;;;5031218;28;20040;-88
2023/06/09 10:42:13;;;;;;;1999.90;999.90;;;18.40;99.90;;;;;;5030818;28;20179;-88
2023/06/09 10:44:50;;;;;;;1999.90;999.90;;;18.50;99.90;;;;;;5013216;28;20043;-87
2023/06/09 10:47:40;;;;;;;1999.90;999.90;;;18.50;99.90;;;;;;5027286;28;20025;-87
2023/06/09 10:50:06;;;;;;;1999.90;999.90;;;18.50;99.90;;;;;;5028589;28;20078;-86
2023/06/09 10:52:41;;;;;;;1999.90;999.90;;;18.50;99.90;;;;;;5029268;28;20489;-85
2023/06/09 10:55:15;;;;;;;1999.90;999.90;;;18.50;99.90;;;;;;5030436;28;20026;-86
2023/06/09 10:57:42;;;;;;;1999.90;999.90;;;18.50;99.90;;;;;;5030657;28;20032;-87
2023/06/09 11:00:12;;;;;;;1999.90;999.90;;;18.50;99.90;;;;;;5013427;28;20068;-88
2023/06/09 11:02:58;;;;;;;1999.90;999.90;;;18.50;99.90;;;;;;5029443;28;20022;-86
2023/06/09 11:05:43;;;;;;;1999.90;999.90;;;18.50;99.90;;;;;;4983130;28;20048;-88
2023/06/09 11:08:09;;;;;;;1999.90;999.90;;;18.50;99.90;;;;;;5028249;28;20020;-86
2023/06/09 11:10:36;;;;;;;1999.90;999.90;;;18.60;99.90;;;;;;5029759;28;20113;-86
2023/06/09 11:13:22;;;;;;;1999.90;999.90;;;18.70;99.90;;;;;;5028002;28;20025;-85
2023/06/09 11:16:00;;;;;;;1999.90;999.90;;;18.70;99.90;;;;;;5022458;28;20112;-86
2023/06/09 11:18:26;;;;;;;1999.90;999.90;;;18.80;99.90;;;;;;5030659;28;20408;-87
2023/06/09 11:21:16;;;;;;;1999.90;999.90;;;18.80;99.90;;;;;;5029583;28;20037;-86
2023/06/09 11:24:02;;;;;;;1999.90;999.90;;;18.90;99.90;;;;;;5011771;28;20473;-85
2023/06/09 11:26:29;;;;;;;1999.90;999.90;;;19.00;99.90;;;;;;5028040;28;20112;-86
2023/06/09 11:28:54;;;;;;;1999.90;999.90;;;19.00;99.90;;;;;;5030139;28;20017;-85
2023/06/09 11:31:20;;;;;;;1999.90;999.90;;;19.00;99.90;;;;;;5027318;28;20060;-85
2023/06/09 11:33:48;;;;;;;1999.90;999.90;;;19.00;99.90;;;;;;5030484;28;20013;-85
2023/06/09 11:36:19;;;;;;;1999.90;999.90;;;19.10;99.90;;;;;;5031771;28;20104;-86
2023/06/09 11:38:46;;;;;;;1999.90;999.90;;;19.10;99.90;;;;;;5038385;28;20085;-86
2023/06/09 11:41:13;;;;;;;1999.90;999.90;;;19.20;99.90;;;;;;5035322;28;20052;-83
2023/06/09 11:43:47;;;;;;;1999.90;999.90;;;19.30;99.90;;;;;;5039056;28;20043;-85
2023/06/09 11:46:13;;;;;;;1999.90;999.90;;;19.40;99.90;;;;;;5029401;28;20511;-84
2023/06/09 11:49:01;;;;;;;1999.90;999.90;;;19.10;99.90;;;;;;5027404;28;20438;-86
2023/06/09 11:51:27;;;;;;;1999.90;999.90;;;19.10;99.90;;;;;;5027644;28;20038;-85
2023/06/09 11:53:53;;;;;;;1999.90;999.90;;;19.10;99.90;;;;;;5012427;28;20032;-85
2023/06/09 11:56:19;;;;;;;1999.90;999.90;;;19.10;99.90;;;;;;5031980;28;20043;-87
2023/06/09 11:58:45;;;;;;;1999.90;999.90;;;19.10;99.90;;;;;;5032963;28;20022;-85
2023/06/09 12:01:11;;;;;;;1999.90;999.90;;;19.20;99.90;;;;;;5032670;28;20033;-84
2023/06/09 12:03:38;;;;;;;1999.90;999.90;;;19.20;99.90;;;;;;5033741;28;20488;-85